sensor_id;sensor_type;location;lat;lon;timestamp;temperature;humidity
38514;DHT22;24282;48.400;10.808;2023-05-14T00:01:24;11.60;87.80
38514;DHT22;24282;48.400;10.808;2023-05-14T00:03:50;11.60;87.90
38514;DHT22;24282;48.400;10.808;2023-05-14T00:06:16;11.60;87.90
38514;DHT22;24282;48.400;10.808;2023-05-14T00:08:41;11.50;88.00
38514;DHT22;24282;48.400;10.808;2023-05-14T00:11:07;11.60;88.00
38514;DHT22;24282;48.400;10.808;2023-05-14T00:13:36;11.60;88.00
38514;DHT22;24282;48.400;10.808;2023-05-14T00:16:02;11.60;88.10
38514;DHT22;24282;48.400;10.808;2023-05-14T00:18:28;11.60;88.10
38514;DHT22;24282;48.400;10.808;2023-05-14T00:20:53;11.60;88.20
38514;DHT22;24282;48.400;10.808;2023-05-14T00:23:20;11.60;88.00
38514;DHT22;24282;48.400;10.808;2023-05-14T00:25:46;11.60;88.00
38514;DHT22;24282;48.400;10.808;2023-05-14T00:28:12;11.60;88.00
38514;DHT22;24282;48.400;10.808;2023-05-14T00:30:38;11.60;88.00
38514;DHT22;24282;48.400;10.808;2023-05-14T00:33:04;11.60;87.90
38514;DHT22;24282;48.400;10.808;2023-05-14T00:35:30;11.60;87.90
38514;DHT22;24282;48.400;10.808;2023-05-14T00:37:56;11.60;87.90
38514;DHT22;24282;48.400;10.808;2023-05-14T00:40:25;11.60;87.80
38514;DHT22;24282;48.400;10.808;2023-05-14T00:42:52;11.60;87.90
38514;DHT22;24282;48.400;10.808;2023-05-14T00:45:18;11.50;87.80
38514;DHT22;24282;48.400;10.808;2023-05-14T00:47:44;11.50;87.90
38514;DHT22;24282;48.400;10.808;2023-05-14T00:50:10;11.50;87.90
38514;DHT22;24282;48.400;10.808;2023-05-14T00:52:37;11.50;87.90
38514;DHT22;24282;48.400;10.808;2023-05-14T00:55:04;11.60;88.00
38514;DHT22;24282;48.400;10.808;2023-05-14T00:57:31;11.50;88.10
38514;DHT22;24282;48.400;10.808;2023-05-14T00:59:57;11.50;88.00
38514;DHT22;24282;48.400;10.808;2023-05-14T01:02:23;11.50;88.00
38514;DHT22;24282;48.400;10.808;2023-05-14T01:04:49;11.50;88.00
38514;DHT22;24282;48.400;10.808;2023-05-14T01:07:29;11.50;87.90
38514;DHT22;24282;48.400;10.808;2023-05-14T01:10:07;11.50;87.90
38514;DHT22;24282;48.400;10.808;2023-05-14T01:15:27;11.50;87.80
38514;DHT22;24282;48.400;10.808;2023-05-14T01:18:00;11.50;87.70
38514;DHT22;24282;48.400;10.808;2023-05-14T01:20:27;11.50;87.60
38514;DHT22;24282;48.400;10.808;2023-05-14T01:22:52;11.50;87.60
38514;DHT22;24282;48.400;10.808;2023-05-14T01:25:18;11.50;87.60
38514;DHT22;24282;48.400;10.808;2023-05-14T01:28:40;11.40;87.60
38514;DHT22;24282;48.400;10.808;2023-05-14T01:31:12;11.50;87.80
38514;DHT22;24282;48.400;10.808;2023-05-14T01:33:41;11.50;87.70
38514;DHT22;24282;48.400;10.808;2023-05-14T01:36:08;11.50;87.60
38514;DHT22;24282;48.400;10.808;2023-05-14T01:38:34;11.50;87.70
38514;DHT22;24282;48.400;10.808;2023-05-14T01:41:01;11.50;87.70
38514;DHT22;24282;48.400;10.808;2023-05-14T01:43:28;11.50;87.60
38514;DHT22;24282;48.400;10.808;2023-05-14T01:45:54;11.40;87.60
38514;DHT22;24282;48.400;10.808;2023-05-14T01:48:20;11.50;87.70
38514;DHT22;24282;48.400;10.808;2023-05-14T01:50:46;11.50;87.70
38514;DHT22;24282;48.400;10.808;2023-05-14T01:53:11;11.40;87.60
38514;DHT22;24282;48.400;10.808;2023-05-14T01:55:37;11.40;87.60
38514;DHT22;24282;48.400;10.808;2023-05-14T01:58:03;11.40;87.50
38514;DHT22;24282;48.400;10.808;2023-05-14T02:00:29;11.40;87.20
38514;DHT22;24282;48.400;10.808;2023-05-14T02:02:56;11.40;87.10
38514;DHT22;24282;48.400;10.808;2023-05-14T02:05:22;11.40;87.10
38514;DHT22;24282;48.400;10.808;2023-05-14T02:07:48;11.40;87.10
38514;DHT22;24282;48.400;10.808;2023-05-14T02:10:14;11.40;87.20
38514;DHT22;24282;48.400;10.808;2023-05-14T02:12:40;11.40;87.20
38514;DHT22;24282;48.400;10.808;2023-05-14T02:15:06;11.40;87.20
38514;DHT22;24282;48.400;10.808;2023-05-14T02:17:34;11.40;87.10
38514;DHT22;24282;48.400;10.808;2023-05-14T02:20:00;11.40;87.10
38514;DHT22;24282;48.400;10.808;2023-05-14T02:22:26;11.40;87.10
38514;DHT22;24282;48.400;10.808;2023-05-14T02:24:52;11.40;87.10
38514;DHT22;24282;48.400;10.808;2023-05-14T02:27:17;11.40;87.20
38514;DHT22;24282;48.400;10.808;2023-05-14T02:29:44;11.40;87.30
38514;DHT22;24282;48.400;10.808;2023-05-14T02:32:09;11.40;87.40
38514;DHT22;24282;48.400;10.808;2023-05-14T02:34:35;11.40;87.40
38514;DHT22;24282;48.400;10.808;2023-05-14T02:37:01;11.40;87.40
38514;DHT22;24282;48.400;10.808;2023-05-14T02:39:27;11.40;87.40
38514;DHT22;24282;48.400;10.808;2023-05-14T02:41:53;11.40;87.40
38514;DHT22;24282;48.400;10.808;2023-05-14T02:44:18;11.40;87.40
38514;DHT22;24282;48.400;10.808;2023-05-14T02:46:45;11.40;87.50
38514;DHT22;24282;48.400;10.808;2023-05-14T02:49:11;11.40;87.50
38514;DHT22;24282;48.400;10.808;2023-05-14T02:51:36;11.40;87.50
38514;DHT22;24282;48.400;10.808;2023-05-14T02:54:02;11.40;87.60
38514;DHT22;24282;48.400;10.808;2023-05-14T02:56:28;11.30;87.60
38514;DHT22;24282;48.400;10.808;2023-05-14T02:58:54;11.40;87.60
38514;DHT22;24282;48.400;10.808;2023-05-14T03:01:19;11.40;87.40
38514;DHT22;24282;48.400;10.808;2023-05-14T03:03:45;11.40;87.30
38514;DHT22;24282;48.400;10.808;2023-05-14T03:06:11;11.30;87.30
38514;DHT22;24282;48.400;10.808;2023-05-14T03:08:36;11.30;87.40
38514;DHT22;24282;48.400;10.808;2023-05-14T03:11:02;11.30;87.40
38514;DHT22;24282;48.400;10.808;2023-05-14T03:13:28;11.40;87.50
38514;DHT22;24282;48.400;10.808;2023-05-14T03:15:54;11.30;87.40
38514;DHT22;24282;48.400;10.808;2023-05-14T03:18:21;11.30;87.40
38514;DHT22;24282;48.400;10.808;2023-05-14T03:20:47;11.30;87.40
38514;DHT22;24282;48.400;10.808;2023-05-14T03:23:13;11.30;87.40
38514;DHT22;24282;48.400;10.808;2023-05-14T03:25:39;11.30;87.50
38514;DHT22;24282;48.400;10.808;2023-05-14T03:28:05;11.30;87.50
38514;DHT22;24282;48.400;10.808;2023-05-14T03:30:31;11.30;87.50
38514;DHT22;24282;48.400;10.808;2023-05-14T03:32:58;11.30;87.40
38514;DHT22;24282;48.400;10.808;2023-05-14T03:35:23;11.30;87.40
38514;DHT22;24282;48.400;10.808;2023-05-14T03:37:50;11.20;87.40
38514;DHT22;24282;48.400;10.808;2023-05-14T03:40:17;11.30;87.40
38514;DHT22;24282;48.400;10.808;2023-05-14T03:42:43;11.30;87.40
38514;DHT22;24282;48.400;10.808;2023-05-14T03:45:09;11.20;87.30
38514;DHT22;24282;48.400;10.808;2023-05-14T03:47:35;11.20;87.30
38514;DHT22;24282;48.400;10.808;2023-05-14T03:50:01;11.30;87.20
38514;DHT22;24282;48.400;10.808;2023-05-14T03:52:27;11.20;87.20
38514;DHT22;24282;48.400;10.808;2023-05-14T03:54:52;11.20;87.10
38514;DHT22;24282;48.400;10.808;2023-05-14T03:57:18;11.20;87.10
38514;DHT22;24282;48.400;10.808;2023-05-14T03:59:44;11.20;87.10
38514;DHT22;24282;48.400;10.808;2023-05-14T04:02:09;11.20;87.10
38514;DHT22;24282;48.400;10.808;2023-05-14T04:04:35;11.20;87.00
38514;DHT22;24282;48.400;10.808;2023-05-14T04:07:01;11.20;86.80
38514;DHT22;24282;48.400;10.808;2023-05-14T04:09:27;11.20;86.80
38514;DHT22;24282;48.400;10.808;2023-05-14T04:11:53;11.20;86.90
38514;DHT22;24282;48.400;10.808;2023-05-14T04:14:19;11.20;87.00
38514;DHT22;24282;48.400;10.808;2023-05-14T04:16:45;11.20;87.10
38514;DHT22;24282;48.400;10.808;2023-05-14T04:19:11;11.10;87.00
38514;DHT22;24282;48.400;10.808;2023-05-14T04:21:37;11.10;87.00
38514;DHT22;24282;48.400;10.808;2023-05-14T04:24:02;11.20;87.00
38514;DHT22;24282;48.400;10.808;2023-05-14T04:26:28;11.20;87.10
38514;DHT22;24282;48.400;10.808;2023-05-14T04:28:54;11.20;87.00
38514;DHT22;24282;48.400;10.808;2023-05-14T04:31:20;11.20;87.10
38514;DHT22;24282;48.400;10.808;2023-05-14T04:33:45;11.20;87.20
38514;DHT22;24282;48.400;10.808;2023-05-14T04:36:11;11.20;87.10
38514;DHT22;24282;48.400;10.808;2023-05-14T04:38:37;11.20;87.20
38514;DHT22;24282;48.400;10.808;2023-05-14T04:41:03;11.20;87.20
38514;DHT22;24282;48.400;10.808;2023-05-14T04:43:29;11.20;87.20
38514;DHT22;24282;48.400;10.808;2023-05-14T04:45:54;11.20;87.20
38514;DHT22;24282;48.400;10.808;2023-05-14T04:48:20;11.20;87.10
38514;DHT22;24282;48.400;10.808;2023-05-14T04:50:46;11.20;87.10
38514;DHT22;24282;48.400;10.808;2023-05-14T04:53:12;11.20;87.10
38514;DHT22;24282;48.400;10.808;2023-05-14T04:55:38;11.20;87.00
38514;DHT22;24282;48.400;10.808;2023-05-14T04:58:04;11.20;87.00
38514;DHT22;24282;48.400;10.808;2023-05-14T05:00:29;11.20;87.10
38514;DHT22;24282;48.400;10.808;2023-05-14T05:02:55;11.20;87.10
38514;DHT22;24282;48.400;10.808;2023-05-14T05:05:22;11.20;87.10
38514;DHT22;24282;48.400;10.808;2023-05-14T05:07:48;11.30;87.10
38514;DHT22;24282;48.400;10.808;2023-05-14T05:10:14;11.30;87.10
38514;DHT22;24282;48.400;10.808;2023-05-14T05:12:40;11.20;86.90
38514;DHT22;24282;48.400;10.808;2023-05-14T05:15:06;11.20;86.80
38514;DHT22;24282;48.400;10.808;2023-05-14T05:17:34;11.30;86.80
38514;DHT22;24282;48.400;10.808;2023-05-14T05:20:00;11.20;86.80
38514;DHT22;24282;48.400;10.808;2023-05-14T05:22:26;11.30;86.90
38514;DHT22;24282;48.400;10.808;2023-05-14T05:24:51;11.30;86.90
38514;DHT22;24282;48.400;10.808;2023-05-14T05:27:17;11.30;86.90
38514;DHT22;24282;48.400;10.808;2023-05-14T05:29:45;11.30;86.90
38514;DHT22;24282;48.400;10.808;2023-05-14T05:32:11;11.30;86.80
38514;DHT22;24282;48.400;10.808;2023-05-14T05:34:36;11.40;86.40
38514;DHT22;24282;48.400;10.808;2023-05-14T05:37:02;11.30;86.30
38514;DHT22;24282;48.400;10.808;2023-05-14T05:39:30;11.40;86.40
38514;DHT22;24282;48.400;10.808;2023-05-14T05:42:00;11.40;86.30
38514;DHT22;24282;48.400;10.808;2023-05-14T05:44:26;11.40;85.90
38514;DHT22;24282;48.400;10.808;2023-05-14T05:46:52;11.40;85.80
38514;DHT22;24282;48.400;10.808;2023-05-14T05:49:20;11.40;85.80
38514;DHT22;24282;48.400;10.808;2023-05-14T05:51:46;11.40;85.60
38514;DHT22;24282;48.400;10.808;2023-05-14T05:54:12;11.40;85.20
38514;DHT22;24282;48.400;10.808;2023-05-14T05:56:37;11.50;85.20
38514;DHT22;24282;48.400;10.808;2023-05-14T05:59:03;11.50;85.40
38514;DHT22;24282;48.400;10.808;2023-05-14T06:01:29;11.50;85.30
38514;DHT22;24282;48.400;10.808;2023-05-14T06:03:55;11.50;85.10
38514;DHT22;24282;48.400;10.808;2023-05-14T06:06:21;11.60;85.00
38514;DHT22;24282;48.400;10.808;2023-05-14T06:08:46;11.60;84.80
38514;DHT22;24282;48.400;10.808;2023-05-14T06:11:12;11.70;84.80
38514;DHT22;24282;48.400;10.808;2023-05-14T06:13:38;11.70;84.80
38514;DHT22;24282;48.400;10.808;2023-05-14T06:16:04;11.70;84.70
38514;DHT22;24282;48.400;10.808;2023-05-14T06:18:29;11.80;84.50
38514;DHT22;24282;48.400;10.808;2023-05-14T06:20:55;11.80;83.90
38514;DHT22;24282;48.400;10.808;2023-05-14T06:23:21;11.80;83.70
38514;DHT22;24282;48.400;10.808;2023-05-14T06:25:49;11.80;83.70
38514;DHT22;24282;48.400;10.808;2023-05-14T06:28:15;11.80;83.60
38514;DHT22;24282;48.400;10.808;2023-05-14T06:30:40;11.80;83.70
38514;DHT22;24282;48.400;10.808;2023-05-14T06:33:06;11.80;83.40
38514;DHT22;24282;48.400;10.808;2023-05-14T06:35:32;11.80;83.20
38514;DHT22;24282;48.400;10.808;2023-05-14T06:37:59;11.70;83.30
38514;DHT22;24282;48.400;10.808;2023-05-14T06:40:24;11.70;83.50
38514;DHT22;24282;48.400;10.808;2023-05-14T06:42:50;11.70;83.50
38514;DHT22;24282;48.400;10.808;2023-05-14T06:45:16;11.70;83.60
38514;DHT22;24282;48.400;10.808;2023-05-14T06:47:42;11.70;83.50
38514;DHT22;24282;48.400;10.808;2023-05-14T06:50:08;11.70;83.50
38514;DHT22;24282;48.400;10.808;2023-05-14T06:52:34;11.70;83.50
38514;DHT22;24282;48.400;10.808;2023-05-14T06:54:59;11.70;83.50
38514;DHT22;24282;48.400;10.808;2023-05-14T06:57:25;11.60;83.70
38514;DHT22;24282;48.400;10.808;2023-05-14T06:59:51;11.60;83.80
38514;DHT22;24282;48.400;10.808;2023-05-14T07:02:16;11.60;83.80
38514;DHT22;24282;48.400;10.808;2023-05-14T07:04:42;11.60;83.90
38514;DHT22;24282;48.400;10.808;2023-05-14T07:07:08;11.70;83.50
38514;DHT22;24282;48.400;10.808;2023-05-14T07:09:35;11.60;83.30
38514;DHT22;24282;48.400;10.808;2023-05-14T07:12:00;11.60;83.30
38514;DHT22;24282;48.400;10.808;2023-05-14T07:14:26;11.60;83.60
38514;DHT22;24282;48.400;10.808;2023-05-14T07:16:52;11.60;83.40
38514;DHT22;24282;48.400;10.808;2023-05-14T07:19:18;11.60;83.50
38514;DHT22;24282;48.400;10.808;2023-05-14T07:21:43;11.60;83.70
38514;DHT22;24282;48.400;10.808;2023-05-14T07:24:09;11.60;83.30
38514;DHT22;24282;48.400;10.808;2023-05-14T07:26:35;11.60;83.40
38514;DHT22;24282;48.400;10.808;2023-05-14T07:29:00;11.70;83.40
38514;DHT22;24282;48.400;10.808;2023-05-14T07:31:26;11.60;83.30
38514;DHT22;24282;48.400;10.808;2023-05-14T07:33:52;11.70;83.30
38514;DHT22;24282;48.400;10.808;2023-05-14T07:36:17;11.60;83.30
38514;DHT22;24282;48.400;10.808;2023-05-14T07:38:43;11.60;83.50
38514;DHT22;24282;48.400;10.808;2023-05-14T07:41:09;11.60;83.70
38514;DHT22;24282;48.400;10.808;2023-05-14T07:43:36;11.60;84.10
38514;DHT22;24282;48.400;10.808;2023-05-14T07:46:03;11.70;84.20
38514;DHT22;24282;48.400;10.808;2023-05-14T07:48:29;11.60;84.40
38514;DHT22;24282;48.400;10.808;2023-05-14T07:50:54;11.70;84.70
38514;DHT22;24282;48.400;10.808;2023-05-14T07:53:20;11.60;85.00
38514;DHT22;24282;48.400;10.808;2023-05-14T07:55:47;11.70;85.20
38514;DHT22;24282;48.400;10.808;2023-05-14T07:58:13;11.70;85.50
38514;DHT22;24282;48.400;10.808;2023-05-14T08:00:40;11.60;85.70
38514;DHT22;24282;48.400;10.808;2023-05-14T08:03:05;11.60;85.90
38514;DHT22;24282;48.400;10.808;2023-05-14T08:05:31;11.60;85.90
38514;DHT22;24282;48.400;10.808;2023-05-14T08:07:57;11.60;85.80
38514;DHT22;24282;48.400;10.808;2023-05-14T08:10:23;11.60;85.80
38514;DHT22;24282;48.400;10.808;2023-05-14T08:12:49;11.70;85.90
38514;DHT22;24282;48.400;10.808;2023-05-14T08:15:14;11.60;86.10
38514;DHT22;24282;48.400;10.808;2023-05-14T08:17:40;11.70;86.20
38514;DHT22;24282;48.400;10.808;2023-05-14T08:20:06;11.70;86.20
38514;DHT22;24282;48.400;10.808;2023-05-14T08:22:32;11.80;86.20
38514;DHT22;24282;48.400;10.808;2023-05-14T08:24:58;11.80;86.00
38514;DHT22;24282;48.400;10.808;2023-05-14T08:27:27;11.80;86.00
38514;DHT22;24282;48.400;10.808;2023-05-14T08:29:52;11.90;86.10
38514;DHT22;24282;48.400;10.808;2023-05-14T08:32:18;11.90;85.80
38514;DHT22;24282;48.400;10.808;2023-05-14T08:34:44;11.90;85.20
38514;DHT22;24282;48.400;10.808;2023-05-14T08:37:09;11.90;84.90
38514;DHT22;24282;48.400;10.808;2023-05-14T08:39:35;12.00;84.80
38514;DHT22;24282;48.400;10.808;2023-05-14T08:42:01;12.00;84.50
38514;DHT22;24282;48.400;10.808;2023-05-14T08:44:43;12.10;84.20
38514;DHT22;24282;48.400;10.808;2023-05-14T08:47:12;12.20;84.10
38514;DHT22;24282;48.400;10.808;2023-05-14T08:49:42;12.30;84.10
38514;DHT22;24282;48.400;10.808;2023-05-14T08:52:09;12.40;83.80
38514;DHT22;24282;48.400;10.808;2023-05-14T08:54:35;12.60;83.90
38514;DHT22;24282;48.400;10.808;2023-05-14T08:57:02;12.70;83.70
38514;DHT22;24282;48.400;10.808;2023-05-14T08:59:28;12.80;83.20
38514;DHT22;24282;48.400;10.808;2023-05-14T09:01:55;12.90;82.70
38514;DHT22;24282;48.400;10.808;2023-05-14T09:04:24;12.90;82.40
38514;DHT22;24282;48.400;10.808;2023-05-14T09:06:54;12.90;81.70
38514;DHT22;24282;48.400;10.808;2023-05-14T09:09:21;12.90;80.20
38514;DHT22;24282;48.400;10.808;2023-05-14T09:11:48;12.90;80.30
38514;DHT22;24282;48.400;10.808;2023-05-14T09:14:15;12.80;81.10
38514;DHT22;24282;48.400;10.808;2023-05-14T09:16:46;12.90;81.50
38514;DHT22;24282;48.400;10.808;2023-05-14T09:19:12;12.90;81.60
38514;DHT22;24282;48.400;10.808;2023-05-14T09:21:39;12.90;81.50
38514;DHT22;24282;48.400;10.808;2023-05-14T09:24:05;12.90;81.60
38514;DHT22;24282;48.400;10.808;2023-05-14T09:26:34;12.90;81.30
38514;DHT22;24282;48.400;10.808;2023-05-14T09:29:01;13.00;81.10
38514;DHT22;24282;48.400;10.808;2023-05-14T09:31:31;13.00;81.10
38514;DHT22;24282;48.400;10.808;2023-05-14T09:33:57;13.10;80.80
38514;DHT22;24282;48.400;10.808;2023-05-14T09:36:24;13.20;80.90
38514;DHT22;24282;48.400;10.808;2023-05-14T09:38:52;13.30;80.80
38514;DHT22;24282;48.400;10.808;2023-05-14T09:41:20;13.40;80.10
38514;DHT22;24282;48.400;10.808;2023-05-14T09:43:48;13.60;80.20
38514;DHT22;24282;48.400;10.808;2023-05-14T09:46:14;13.70;79.90
38514;DHT22;24282;48.400;10.808;2023-05-14T09:48:40;13.90;79.40
38514;DHT22;24282;48.400;10.808;2023-05-14T09:51:05;14.00;78.90
38514;DHT22;24282;48.400;10.808;2023-05-14T09:53:32;14.00;78.30
38514;DHT22;24282;48.400;10.808;2023-05-14T09:55:58;14.00;78.60
38514;DHT22;24282;48.400;10.808;2023-05-14T09:58:24;13.90;78.50
38514;DHT22;24282;48.400;10.808;2023-05-14T10:00:53;14.00;78.60
38514;DHT22;24282;48.400;10.808;2023-05-14T10:03:19;14.00;78.30
38514;DHT22;24282;48.400;10.808;2023-05-14T10:05:48;13.90;77.70
38514;DHT22;24282;48.400;10.808;2023-05-14T10:08:25;13.90;77.80
38514;DHT22;24282;48.400;10.808;2023-05-14T10:10:53;13.90;78.40
38514;DHT22;24282;48.400;10.808;2023-05-14T10:13:22;13.90;78.20
38514;DHT22;24282;48.400;10.808;2023-05-14T10:15:56;13.90;78.30
38514;DHT22;24282;48.400;10.808;2023-05-14T10:18:26;13.90;78.30
38514;DHT22;24282;48.400;10.808;2023-05-14T10:21:05;13.90;78.00
38514;DHT22;24282;48.400;10.808;2023-05-14T10:23:32;13.90;78.10
38514;DHT22;24282;48.400;10.808;2023-05-14T10:25:58;13.90;78.30
38514;DHT22;24282;48.400;10.808;2023-05-14T10:28:25;13.90;78.40
38514;DHT22;24282;48.400;10.808;2023-05-14T10:30:53;13.90;78.40
38514;DHT22;24282;48.400;10.808;2023-05-14T10:33:18;13.80;78.30
38514;DHT22;24282;48.400;10.808;2023-05-14T10:36:03;13.80;78.40
38514;DHT22;24282;48.400;10.808;2023-05-14T10:38:34;13.80;78.30
38514;DHT22;24282;48.400;10.808;2023-05-14T10:41:10;13.80;77.70
38514;DHT22;24282;48.400;10.808;2023-05-14T10:43:38;13.90;77.20
38514;DHT22;24282;48.400;10.808;2023-05-14T10:46:04;13.90;76.90
38514;DHT22;24282;48.400;10.808;2023-05-14T10:48:31;13.90;76.20
38514;DHT22;24282;48.400;10.808;2023-05-14T10:50:58;14.00;76.20
38514;DHT22;24282;48.400;10.808;2023-05-14T10:53:38;14.10;76.10
38514;DHT22;24282;48.400;10.808;2023-05-14T10:56:04;14.20;76.40
38514;DHT22;24282;48.400;10.808;2023-05-14T10:58:31;14.20;76.30
38514;DHT22;24282;48.400;10.808;2023-05-14T11:00:59;14.30;76.00
38514;DHT22;24282;48.400;10.808;2023-05-14T11:03:29;14.30;76.10
38514;DHT22;24282;48.400;10.808;2023-05-14T11:05:56;14.30;75.40
38514;DHT22;24282;48.400;10.808;2023-05-14T11:08:25;14.40;75.30
38514;DHT22;24282;48.400;10.808;2023-05-14T11:10:51;14.40;75.20
38514;DHT22;24282;48.400;10.808;2023-05-14T11:13:18;14.30;74.80
38514;DHT22;24282;48.400;10.808;2023-05-14T11:15:45;14.30;74.90
38514;DHT22;24282;48.400;10.808;2023-05-14T11:18:12;14.30;74.80
38514;DHT22;24282;48.400;10.808;2023-05-14T11:20:39;14.30;74.80
38514;DHT22;24282;48.400;10.808;2023-05-14T11:23:04;14.40;74.80
38514;DHT22;24282;48.400;10.808;2023-05-14T11:25:30;14.30;75.50
38514;DHT22;24282;48.400;10.808;2023-05-14T11:27:56;14.40;75.60
38514;DHT22;24282;48.400;10.808;2023-05-14T11:30:25;14.40;75.00
38514;DHT22;24282;48.400;10.808;2023-05-14T11:32:51;14.30;74.80
38514;DHT22;24282;48.400;10.808;2023-05-14T11:35:17;14.40;75.30
38514;DHT22;24282;48.400;10.808;2023-05-14T11:37:49;14.40;75.40
38514;DHT22;24282;48.400;10.808;2023-05-14T11:40:17;14.40;75.50
38514;DHT22;24282;48.400;10.808;2023-05-14T11:42:43;14.40;75.30
38514;DHT22;24282;48.400;10.808;2023-05-14T11:45:13;14.40;75.10
38514;DHT22;24282;48.400;10.808;2023-05-14T11:47:48;14.50;75.30
38514;DHT22;24282;48.400;10.808;2023-05-14T11:50:15;14.60;75.40
38514;DHT22;24282;48.400;10.808;2023-05-14T11:52:41;14.70;75.50
38514;DHT22;24282;48.400;10.808;2023-05-14T11:55:13;14.80;75.40
38514;DHT22;24282;48.400;10.808;2023-05-14T11:57:39;14.90;74.80
38514;DHT22;24282;48.400;10.808;2023-05-14T12:00:09;14.90;74.50
38514;DHT22;24282;48.400;10.808;2023-05-14T12:02:38;14.90;74.10
38514;DHT22;24282;48.400;10.808;2023-05-14T12:05:04;15.00;73.60
38514;DHT22;24282;48.400;10.808;2023-05-14T12:07:31;15.30;73.10
38514;DHT22;24282;48.400;10.808;2023-05-14T12:10:00;15.60;71.90
38514;DHT22;24282;48.400;10.808;2023-05-14T12:12:26;16.00;70.40
38514;DHT22;24282;48.400;10.808;2023-05-14T12:14:52;16.40;68.70
38514;DHT22;24282;48.400;10.808;2023-05-14T12:17:19;16.80;68.10
38514;DHT22;24282;48.400;10.808;2023-05-14T12:19:47;17.10;67.90
38514;DHT22;24282;48.400;10.808;2023-05-14T12:22:15;17.40;66.70
38514;DHT22;24282;48.400;10.808;2023-05-14T12:24:42;17.70;65.00
38514;DHT22;24282;48.400;10.808;2023-05-14T12:27:09;17.90;64.00
38514;DHT22;24282;48.400;10.808;2023-05-14T12:29:38;18.00;62.90
38514;DHT22;24282;48.400;10.808;2023-05-14T12:32:07;18.20;62.00
38514;DHT22;24282;48.400;10.808;2023-05-14T12:34:34;18.40;61.90
38514;DHT22;24282;48.400;10.808;2023-05-14T12:37:00;18.60;61.30
38514;DHT22;24282;48.400;10.808;2023-05-14T12:39:26;18.90;59.50
38514;DHT22;24282;48.400;10.808;2023-05-14T12:41:52;18.90;59.50
38514;DHT22;24282;48.400;10.808;2023-05-14T12:44:17;18.90;60.00
38514;DHT22;24282;48.400;10.808;2023-05-14T12:46:43;19.00;59.40
38514;DHT22;24282;48.400;10.808;2023-05-14T12:49:09;19.10;59.30
38514;DHT22;24282;48.400;10.808;2023-05-14T12:51:35;19.10;59.30
38514;DHT22;24282;48.400;10.808;2023-05-14T12:54:01;19.30;58.50
38514;DHT22;24282;48.400;10.808;2023-05-14T12:56:27;19.40;58.70
38514;DHT22;24282;48.400;10.808;2023-05-14T12:58:54;19.50;58.40
38514;DHT22;24282;48.400;10.808;2023-05-14T13:01:20;19.70;58.40
38514;DHT22;24282;48.400;10.808;2023-05-14T13:03:46;19.90;57.80
38514;DHT22;24282;48.400;10.808;2023-05-14T13:06:12;20.00;57.70
38514;DHT22;24282;48.400;10.808;2023-05-14T13:08:37;19.90;57.60
38514;DHT22;24282;48.400;10.808;2023-05-14T13:11:03;19.60;58.30
38514;DHT22;24282;48.400;10.808;2023-05-14T13:13:29;19.50;58.70
38514;DHT22;24282;48.400;10.808;2023-05-14T13:15:55;19.40;59.60
38514;DHT22;24282;48.400;10.808;2023-05-14T13:18:20;19.40;59.40
38514;DHT22;24282;48.400;10.808;2023-05-14T13:20:46;19.60;58.90
38514;DHT22;24282;48.400;10.808;2023-05-14T13:23:13;19.60;57.90
38514;DHT22;24282;48.400;10.808;2023-05-14T13:25:38;19.60;57.70
38514;DHT22;24282;48.400;10.808;2023-05-14T13:28:04;19.40;56.60
38514;DHT22;24282;48.400;10.808;2023-05-14T13:30:30;19.20;57.40
38514;DHT22;24282;48.400;10.808;2023-05-14T13:32:58;19.00;58.10
38514;DHT22;24282;48.400;10.808;2023-05-14T13:35:23;18.80;59.90
38514;DHT22;24282;48.400;10.808;2023-05-14T13:37:49;18.60;59.60
38514;DHT22;24282;48.400;10.808;2023-05-14T13:40:15;18.40;59.80
38514;DHT22;24282;48.400;10.808;2023-05-14T13:42:41;18.30;60.00
38514;DHT22;24282;48.400;10.808;2023-05-14T13:45:07;18.10;60.50
38514;DHT22;24282;48.400;10.808;2023-05-14T13:47:33;17.90;61.50
38514;DHT22;24282;48.400;10.808;2023-05-14T13:49:59;17.80;62.00
38514;DHT22;24282;48.400;10.808;2023-05-14T13:52:24;17.70;62.60
38514;DHT22;24282;48.400;10.808;2023-05-14T13:54:51;17.60;62.70
38514;DHT22;24282;48.400;10.808;2023-05-14T13:57:18;17.60;62.70
38514;DHT22;24282;48.400;10.808;2023-05-14T13:59:45;17.50;63.50
38514;DHT22;24282;48.400;10.808;2023-05-14T14:02:10;17.40;64.40
38514;DHT22;24282;48.400;10.808;2023-05-14T14:04:36;17.40;64.50
38514;DHT22;24282;48.400;10.808;2023-05-14T14:07:02;17.30;64.40
38514;DHT22;24282;48.400;10.808;2023-05-14T14:09:28;17.30;64.30
38514;DHT22;24282;48.400;10.808;2023-05-14T14:11:53;17.30;64.80
38514;DHT22;24282;48.400;10.808;2023-05-14T14:14:19;17.30;65.00
38514;DHT22;24282;48.400;10.808;2023-05-14T14:16:45;17.30;65.10
38514;DHT22;24282;48.400;10.808;2023-05-14T14:19:10;17.30;65.10
38514;DHT22;24282;48.400;10.808;2023-05-14T14:21:36;17.40;64.60
38514;DHT22;24282;48.400;10.808;2023-05-14T14:24:04;17.30;64.90
38514;DHT22;24282;48.400;10.808;2023-05-14T14:26:30;17.30;65.00
38514;DHT22;24282;48.400;10.808;2023-05-14T14:28:56;17.30;65.40
38514;DHT22;24282;48.400;10.808;2023-05-14T14:31:22;17.30;65.40
38514;DHT22;24282;48.400;10.808;2023-05-14T14:33:47;17.30;64.40
38514;DHT22;24282;48.400;10.808;2023-05-14T14:36:13;17.40;64.20
38514;DHT22;24282;48.400;10.808;2023-05-14T14:38:39;17.50;63.90
38514;DHT22;24282;48.400;10.808;2023-05-14T14:41:05;17.60;64.30
38514;DHT22;24282;48.400;10.808;2023-05-14T14:43:35;17.70;64.60
38514;DHT22;24282;48.400;10.808;2023-05-14T14:46:01;17.80;63.80
38514;DHT22;24282;48.400;10.808;2023-05-14T14:48:32;17.90;63.60
38514;DHT22;24282;48.400;10.808;2023-05-14T14:51:07;18.20;63.30
38514;DHT22;24282;48.400;10.808;2023-05-14T14:53:34;18.20;61.60
38514;DHT22;24282;48.400;10.808;2023-05-14T14:56:01;18.10;61.10
38514;DHT22;24282;48.400;10.808;2023-05-14T14:58:26;18.00;61.00
38514;DHT22;24282;48.400;10.808;2023-05-14T15:00:54;18.00;61.10
38514;DHT22;24282;48.400;10.808;2023-05-14T15:03:20;18.20;60.90
38514;DHT22;24282;48.400;10.808;2023-05-14T15:05:47;18.40;59.60
38514;DHT22;24282;48.400;10.808;2023-05-14T15:08:13;18.40;58.70
38514;DHT22;24282;48.400;10.808;2023-05-14T15:10:39;18.60;59.20
38514;DHT22;24282;48.400;10.808;2023-05-14T15:13:06;18.70;58.30
38514;DHT22;24282;48.400;10.808;2023-05-14T15:15:33;18.90;58.30